sensor_id;sensor_type;location;lat;lon;timestamp;pressure;altitude;pressure_sealevel;temperature;humidity
76753;BME280;65687;51.308;16.916;2023-06-05T00:02:59;100185.96;;;11.65;54.23
76753;BME280;65687;51.308;16.916;2023-06-05T00:08:01;100184.95;;;11.65;54.03
76753;BME280;65687;51.308;16.916;2023-06-05T00:13:02;100182.73;;;11.67;53.82
76753;BME280;65687;51.308;16.916;2023-06-05T00:18:04;100180.44;;;11.71;53.74
76753;BME280;65687;51.308;16.916;2023-06-05T00:23:06;100182.43;;;11.75;53.46
76753;BME280;65687;51.308;16.916;2023-06-05T00:28:07;100180.16;;;11.79;53.29
76753;BME280;65687;51.308;16.916;2023-06-05T00:33:09;100176.96;;;11.84;52.83
76753;BME280;65687;51.308;16.916;2023-06-05T00:38:10;100176.83;;;11.90;52.67
76753;BME280;65687;51.308;16.916;2023-06-05T00:43:12;100174.11;;;11.95;52.67
76753;BME280;65687;51.308;16.916;2023-06-05T00:48:13;100172.71;;;11.97;53.04
76753;BME280;65687;51.308;16.916;2023-06-05T00:53:15;100171.30;;;11.94;53.46
76753;BME280;65687;51.308;16.916;2023-06-05T00:58:17;100169.61;;;11.88;53.97
76753;BME280;65687;51.308;16.916;2023-06-05T01:03:19;100161.88;;;11.87;53.84
76753;BME280;65687;51.308;16.916;2023-06-05T01:08:24;100156.94;;;11.86;54.16
76753;BME280;65687;51.308;16.916;2023-06-05T01:13:26;100157.33;;;11.84;54.29
76753;BME280;65687;51.308;16.916;2023-06-05T01:18:31;100155.39;;;11.83;54.34
76753;BME280;65687;51.308;16.916;2023-06-05T01:23:35;100151.58;;;11.82;54.90
76753;BME280;65687;51.308;16.916;2023-06-05T01:28:38;100152.04;;;11.81;55.12
76753;BME280;65687;51.308;16.916;2023-06-05T01:33:47;100146.88;;;11.82;54.92
76753;BME280;65687;51.308;16.916;2023-06-05T01:38:53;100145.74;;;11.83;54.89
76753;BME280;65687;51.308;16.916;2023-06-05T01:43:59;100143.84;;;11.82;54.98
76753;BME280;65687;51.308;16.916;2023-06-05T01:49:01;100143.02;;;11.80;55.39
76753;BME280;65687;51.308;16.916;2023-06-05T01:54:03;100144.96;;;11.77;55.72
76753;BME280;65687;51.308;16.916;2023-06-05T01:59:06;100144.65;;;11.70;56.14
76753;BME280;65687;51.308;16.916;2023-06-05T02:04:08;100141.45;;;11.62;56.19
76753;BME280;65687;51.308;16.916;2023-06-05T02:09:10;100135.09;;;11.53;56.37
76753;BME280;65687;51.308;16.916;2023-06-05T02:14:14;100140.08;;;11.46;56.59
76753;BME280;65687;51.308;16.916;2023-06-05T02:19:16;100134.73;;;11.42;56.59
76753;BME280;65687;51.308;16.916;2023-06-05T02:24:20;100134.67;;;11.36;57.08
76753;BME280;65687;51.308;16.916;2023-06-05T02:29:21;100130.61;;;11.29;57.47
76753;BME280;65687;51.308;16.916;2023-06-05T02:34:23;100135.52;;;11.21;57.24
76753;BME280;65687;51.308;16.916;2023-06-05T02:39:26;100141.27;;;11.14;57.68
76753;BME280;65687;51.308;16.916;2023-06-05T02:44:27;100140.08;;;11.06;57.89
76753;BME280;65687;51.308;16.916;2023-06-05T02:49:29;100141.77;;;10.99;58.06
76753;BME280;65687;51.308;16.916;2023-06-05T02:54:31;100142.29;;;10.94;57.93
76753;BME280;65687;51.308;16.916;2023-06-05T02:59:32;100141.42;;;10.94;58.03
76753;BME280;65687;51.308;16.916;2023-06-05T03:04:34;100138.27;;;10.90;58.25
76753;BME280;65687;51.308;16.916;2023-06-05T03:09:35;100142.67;;;10.90;58.48
76753;BME280;65687;51.308;16.916;2023-06-05T03:14:38;100141.20;;;10.86;58.83
76753;BME280;65687;51.308;16.916;2023-06-05T03:19:40;100143.76;;;10.81;59.17
76753;BME280;65687;51.308;16.916;2023-06-05T03:24:42;100144.90;;;10.73;59.63
76753;BME280;65687;51.308;16.916;2023-06-05T03:29:44;100144.16;;;10.65;60.09
76753;BME280;65687;51.308;16.916;2023-06-05T03:34:46;100145.20;;;10.60;60.36
76753;BME280;65687;51.308;16.916;2023-06-05T03:39:50;100148.98;;;10.54;60.35
76753;BME280;65687;51.308;16.916;2023-06-05T03:44:51;100149.80;;;10.51;60.75
76753;BME280;65687;51.308;16.916;2023-06-05T03:49:53;100148.80;;;10.49;61.49
76753;BME280;65687;51.308;16.916;2023-06-05T03:54:56;100151.31;;;10.49;61.89
76753;BME280;65687;51.308;16.916;2023-06-05T03:59:57;100146.38;;;10.49;61.78
76753;BME280;65687;51.308;16.916;2023-06-05T04:04:59;100150.11;;;10.46;62.36
76753;BME280;65687;51.308;16.916;2023-06-05T04:10:02;100147.70;;;10.48;62.68
76753;BME280;65687;51.308;16.916;2023-06-05T04:15:04;100146.98;;;10.50;63.21
76753;BME280;65687;51.308;16.916;2023-06-05T04:20:06;100149.35;;;10.52;63.46
76753;BME280;65687;51.308;16.916;2023-06-05T04:25:15;100144.98;;;10.55;63.72
76753;BME280;65687;51.308;16.916;2023-06-05T04:30:17;100150.54;;;10.62;63.94
76753;BME280;65687;51.308;16.916;2023-06-05T04:35:19;100157.55;;;10.70;64.47
76753;BME280;65687;51.308;16.916;2023-06-05T04:40:21;100159.43;;;10.78;64.45
76753;BME280;65687;51.308;16.916;2023-06-05T04:45:22;100165.26;;;10.84;65.11
76753;BME280;65687;51.308;16.916;2023-06-05T04:50:27;100164.39;;;10.91;66.09
76753;BME280;65687;51.308;16.916;2023-06-05T04:55:28;100158.89;;;11.04;65.48
76753;BME280;65687;51.308;16.916;2023-06-05T05:00:30;100160.52;;;11.26;65.19
76753;BME280;65687;51.308;16.916;2023-06-05T05:05:32;100151.17;;;11.48;64.19
76753;BME280;65687;51.308;16.916;2023-06-05T05:10:33;100149.42;;;11.75;64.26
76753;BME280;65687;51.308;16.916;2023-06-05T05:15:35;100149.23;;;11.85;65.25
76753;BME280;65687;51.308;16.916;2023-06-05T05:20:36;100149.17;;;11.91;64.75
76753;BME280;65687;51.308;16.916;2023-06-05T05:25:40;100154.86;;;12.09;63.10
76753;BME280;65687;51.308;16.916;2023-06-05T05:30:41;100159.58;;;12.27;62.89
76753;BME280;65687;51.308;16.916;2023-06-05T05:35:44;100160.38;;;12.45;62.78
76753;BME280;65687;51.308;16.916;2023-06-05T05:40:46;100159.65;;;12.55;63.20
76753;BME280;65687;51.308;16.916;2023-06-05T05:45:47;100161.48;;;12.66;63.08
76753;BME280;65687;51.308;16.916;2023-06-05T05:50:49;100161.70;;;12.75;63.56
76753;BME280;65687;51.308;16.916;2023-06-05T05:55:51;100162.21;;;12.86;64.14
76753;BME280;65687;51.308;16.916;2023-06-05T06:00:53;100164.13;;;12.98;63.63
76753;BME280;65687;51.308;16.916;2023-06-05T06:05:54;100161.60;;;13.18;61.80
76753;BME280;65687;51.308;16.916;2023-06-05T06:10:58;100163.55;;;13.36;62.78
76753;BME280;65687;51.308;16.916;2023-06-05T06:16:00;100163.58;;;13.48;63.58
76753;BME280;65687;51.308;16.916;2023-06-05T06:21:03;100161.80;;;13.61;63.65
76753;BME280;65687;51.308;16.916;2023-06-05T06:26:06;100162.73;;;13.89;60.78
76753;BME280;65687;51.308;16.916;2023-06-05T06:31:08;100168.30;;;14.09;63.20
76753;BME280;65687;51.308;16.916;2023-06-05T06:36:10;100176.59;;;14.30;61.16
76753;BME280;65687;51.308;16.916;2023-06-05T06:41:12;100173.84;;;14.63;59.51
76753;BME280;65687;51.308;16.916;2023-06-05T06:46:13;100173.54;;;14.86;60.32
76753;BME280;65687;51.308;16.916;2023-06-05T06:51:15;100172.73;;;15.12;57.18
76753;BME280;65687;51.308;16.916;2023-06-05T06:56:17;100167.99;;;15.36;60.43
76753;BME280;65687;51.308;16.916;2023-06-05T07:01:19;100174.15;;;15.56;59.42
76753;BME280;65687;51.308;16.916;2023-06-05T07:06:21;100174.11;;;15.89;54.90
76753;BME280;65687;51.308;16.916;2023-06-05T07:11:25;100178.08;;;16.18;55.49
76753;BME280;65687;51.308;16.916;2023-06-05T07:16:27;100176.02;;;16.46;55.18
76753;BME280;65687;51.308;16.916;2023-06-05T07:21:29;100181.14;;;16.54;56.75
76753;BME280;65687;51.308;16.916;2023-06-05T07:26:30;100183.65;;;16.70;55.97
76753;BME280;65687;51.308;16.916;2023-06-05T07:31:33;100179.77;;;16.98;51.31
76753;BME280;65687;51.308;16.916;2023-06-05T07:36:35;100180.68;;;17.30;53.01
76753;BME280;65687;51.308;16.916;2023-06-05T07:41:38;100183.21;;;17.56;52.90
76753;BME280;65687;51.308;16.916;2023-06-05T07:46:42;100174.18;;;17.85;51.17
76753;BME280;65687;51.308;16.916;2023-06-05T07:51:45;100181.52;;;18.23;46.92
76753;BME280;65687;51.308;16.916;2023-06-05T07:56:48;100185.97;;;18.62;45.54
76753;BME280;65687;51.308;16.916;2023-06-05T08:01:52;100180.00;;;19.03;45.74
76753;BME280;65687;51.308;16.916;2023-06-05T08:06:55;100179.96;;;19.45;44.23
76753;BME280;65687;51.308;16.916;2023-06-05T08:11:57;100172.49;;;19.76;43.70
76753;BME280;65687;51.308;16.916;2023-06-05T08:16:59;100166.77;;;20.00;44.46
76753;BME280;65687;51.308;16.916;2023-06-05T08:22:16;100166.15;;;20.34;43.42
76753;BME280;65687;51.308;16.916;2023-06-05T08:27:18;100168.23;;;20.73;41.32
76753;BME280;65687;51.308;16.916;2023-06-05T08:32:19;100168.89;;;21.02;38.70
76753;BME280;65687;51.308;16.916;2023-06-05T08:42:25;100170.11;;;21.53;37.46
76753;BME280;65687;51.308;16.916;2023-06-05T08:47:29;100172.95;;;21.69;36.14
76753;BME280;65687;51.308;16.916;2023-06-05T08:52:33;100169.58;;;21.85;35.33
76753;BME280;65687;51.308;16.916;2023-06-05T08:57:40;100176.65;;;22.06;35.56
76753;BME280;65687;51.308;16.916;2023-06-05T09:02:42;100172.36;;;22.28;34.89
76753;BME280;65687;51.308;16.916;2023-06-05T09:07:50;100168.42;;;22.52;34.68
76753;BME280;65687;51.308;16.916;2023-06-05T09:12:59;100170.55;;;22.63;33.59
76753;BME280;65687;51.308;16.916;2023-06-05T09:18:05;100164.22;;;22.72;33.96
76753;BME280;65687;51.308;16.916;2023-06-05T09:23:25;100155.86;;;23.08;33.78
76753;BME280;65687;51.308;16.916;2023-06-05T09:28:28;100154.37;;;23.38;31.62
76753;BME280;65687;51.308;16.916;2023-06-05T09:33:32;100155.64;;;23.41;30.38
76753;BME280;65687;51.308;16.916;2023-06-05T09:38:37;100159.84;;;23.37;29.88
76753;BME280;65687;51.308;16.916;2023-06-05T09:43:39;100146.39;;;23.36;29.76
76753;BME280;65687;51.308;16.916;2023-06-05T09:48:41;100140.11;;;23.59;30.68
76753;BME280;65687;51.308;16.916;2023-06-05T09:53:47;100135.95;;;23.68;30.81
76753;BME280;65687;51.308;16.916;2023-06-05T09:58:52;100133.73;;;23.79;30.20
76753;BME280;65687;51.308;16.916;2023-06-05T10:03:58;100126.14;;;23.90;30.28
76753;BME280;65687;51.308;16.916;2023-06-05T10:09:00;100125.34;;;23.84;29.57
76753;BME280;65687;51.308;16.916;2023-06-05T10:14:02;100114.73;;;23.78;29.38
76753;BME280;65687;51.308;16.916;2023-06-05T10:19:05;100117.77;;;23.84;31.02
76753;BME280;65687;51.308;16.916;2023-06-05T10:24:12;100112.23;;;23.93;30.53
76753;BME280;65687;51.308;16.916;2023-06-05T10:40:16;100104.27;;;24.16;29.88
76753;BME280;65687;51.308;16.916;2023-06-05T10:45:31;100106.02;;;23.95;29.09
76753;BME280;65687;51.308;16.916;2023-06-05T10:50:35;100107.13;;;23.77;29.13
76753;BME280;65687;51.308;16.916;2023-06-05T10:55:41;100094.95;;;23.71;30.05
76753;BME280;65687;51.308;16.916;2023-06-05T11:06:20;100092.14;;;23.77;30.05
76753;BME280;65687;51.308;16.916;2023-06-05T11:11:22;100090.02;;;23.65;28.62
76753;BME280;65687;51.308;16.916;2023-06-05T11:16:27;100080.33;;;23.63;28.58
76753;BME280;65687;51.308;16.916;2023-06-05T11:27:41;100079.65;;;23.53;28.37
76753;BME280;65687;51.308;16.916;2023-06-05T11:32:43;100080.83;;;23.32;28.20
76753;BME280;65687;51.308;16.916;2023-06-05T11:37:45;100078.55;;;23.20;27.42
76753;BME280;65687;51.308;16.916;2023-06-05T11:42:46;100071.48;;;23.11;28.69
76753;BME280;65687;51.308;16.916;2023-06-05T11:47:48;100064.23;;;23.11;30.45
76753;BME280;65687;51.308;16.916;2023-06-05T11:52:49;100063.27;;;23.14;29.41
76753;BME280;65687;51.308;16.916;2023-06-05T11:57:51;100055.64;;;23.12;29.39
76753;BME280;65687;51.308;16.916;2023-06-05T12:02:52;100050.69;;;23.14;30.16
76753;BME280;65687;51.308;16.916;2023-06-05T12:07:55;100051.21;;;23.14;30.04
76753;BME280;65687;51.308;16.916;2023-06-05T12:12:57;100044.33;;;23.05;30.37
76753;BME280;65687;51.308;16.916;2023-06-05T12:17:59;100038.38;;;23.10;31.61
76753;BME280;65687;51.308;16.916;2023-06-05T12:23:02;100033.29;;;23.14;30.95
76753;BME280;65687;51.308;16.916;2023-06-05T12:28:18;100028.98;;;23.14;30.89
76753;BME280;65687;51.308;16.916;2023-06-05T12:33:22;100027.10;;;23.15;30.93
76753;BME280;65687;51.308;16.916;2023-06-05T12:38:25;100021.27;;;23.17;30.35
76753;BME280;65687;51.308;16.916;2023-06-05T12:43:27;100015.78;;;23.18;31.18
76753;BME280;65687;51.308;16.916;2023-06-05T12:48:28;100016.13;;;23.19;29.21
76753;BME280;65687;51.308;16.916;2023-06-05T12:53:30;100008.46;;;23.13;29.72
76753;BME280;65687;51.308;16.916;2023-06-05T12:58:32;100002.41;;;23.12;28.79
76753;BME280;65687;51.308;16.916;2023-06-05T13:03:33;100001.20;;;23.12;29.17
76753;BME280;65687;51.308;16.916;2023-06-05T13:08:35;100004.31;;;23.13;28.67
76753;BME280;65687;51.308;16.916;2023-06-05T13:13:37;99994.17;;;23.04;28.59
76753;BME280;65687;51.308;16.916;2023-06-05T13:18:38;99989.84;;;23.03;29.22
76753;BME280;65687;51.308;16.916;2023-06-05T13:23:40;99991.40;;;23.03;28.08
76753;BME280;65687;51.308;16.916;2023-06-05T13:28:41;99985.27;;;23.07;28.18
76753;BME280;65687;51.308;16.916;2023-06-05T13:33:45;99977.52;;;23.07;28.21
76753;BME280;65687;51.308;16.916;2023-06-05T13:38:47;99970.27;;;23.07;28.08
76753;BME280;65687;51.308;16.916;2023-06-05T13:43:48;99969.44;;;23.09;28.10
76753;BME280;65687;51.308;16.916;2023-06-05T13:48:50;99963.40;;;23.09;28.46
76753;BME280;65687;51.308;16.916;2023-06-05T13:53:53;99958.66;;;23.14;29.91
76753;BME280;65687;51.308;16.916;2023-06-05T13:58:55;99954.45;;;23.20;28.88
76753;BME280;65687;51.308;16.916;2023-06-05T14:03:58;99954.52;;;23.23;28.19
76753;BME280;65687;51.308;16.916;2023-06-05T14:08:59;99959.09;;;23.29;26.10
76753;BME280;65687;51.308;16.916;2023-06-05T14:14:01;99950.20;;;23.34;25.28
76753;BME280;65687;51.308;16.916;2023-06-05T14:19:03;99941.23;;;23.34;25.83
76753;BME280;65687;51.308;16.916;2023-06-05T14:24:05;99940.52;;;23.33;26.13
76753;BME280;65687;51.308;16.916;2023-06-05T14:29:07;99938.16;;;23.35;27.08
76753;BME280;65687;51.308;16.916;2023-06-05T14:34:08;99934.05;;;23.38;26.80
76753;BME280;65687;51.308;16.916;2023-06-05T14:39:11;99932.02;;;23.40;26.89
76753;BME280;65687;51.308;16.916;2023-06-05T14:44:13;99930.80;;;23.38;26.98
76753;BME280;65687;51.308;16.916;2023-06-05T14:49:14;99921.64;;;23.36;27.55
76753;BME280;65687;51.308;16.916;2023-06-05T14:54:16;99924.04;;;23.36;27.58
76753;BME280;65687;51.308;16.916;2023-06-05T14:59:17;99921.45;;;23.36;28.28
76753;BME280;65687;51.308;16.916;2023-06-05T15:04:19;99914.23;;;23.37;28.52
76753;BME280;65687;51.308;16.916;2023-06-05T15:09:21;99912.31;;;23.35;28.52
76753;BME280;65687;51.308;16.916;2023-06-05T15:14:23;99913.89;;;23.26;26.06
76753;BME280;65687;51.308;16.916;2023-06-05T15:19:25;99906.73;;;23.20;26.74
76753;BME280;65687;51.308;16.916;2023-06-05T15:24:27;99903.77;;;23.19;27.80
76753;BME280;65687;51.308;16.916;2023-06-05T15:29:29;99907.51;;;23.15;28.67
76753;BME280;65687;51.308;16.916;2023-06-05T15:34:31;99905.94;;;23.13;28.06
76753;BME280;65687;51.308;16.916;2023-06-05T15:39:32;99901.13;;;23.14;27.65
76753;BME280;65687;51.308;16.916;2023-06-05T15:44:38;99897.17;;;23.14;27.67
76753;BME280;65687;51.308;16.916;2023-06-05T15:49:40;99894.88;;;23.11;30.94
76753;BME280;65687;51.308;16.916;2023-06-05T15:54:41;99888.45;;;23.08;29.42
76753;BME280;65687;51.308;16.916;2023-06-05T15:59:44;99887.66;;;23.02;31.83
76753;BME280;65687;51.308;16.916;2023-06-05T16:04:47;99884.52;;;22.99;30.89
76753;BME280;65687;51.308;16.916;2023-06-05T16:09:49;99886.38;;;22.96;32.93
76753;BME280;65687;51.308;16.916;2023-06-05T16:14:52;99880.86;;;22.96;30.99
76753;BME280;65687;51.308;16.916;2023-06-05T16:19:56;99875.60;;;23.01;29.93
76753;BME280;65687;51.308;16.916;2023-06-05T16:24:57;99866.20;;;23.06;29.69
76753;BME280;65687;51.308;16.916;2023-06-05T16:29:59;99863.63;;;23.07;31.42
76753;BME280;65687;51.308;16.916;2023-06-05T16:35:02;99865.14;;;23.05;30.56
76753;BME280;65687;51.308;16.916;2023-06-05T16:40:04;99861.33;;;23.03;30.38
76753;BME280;65687;51.308;16.916;2023-06-05T16:45:06;99860.41;;;22.99;30.59
76753;BME280;65687;51.308;16.916;2023-06-05T16:50:08;99863.76;;;22.93;31.76
76753;BME280;65687;51.308;16.916;2023-06-05T16:55:09;99858.63;;;22.84;34.81
76753;BME280;65687;51.308;16.916;2023-06-05T17:00:12;99855.13;;;22.62;39.03
76753;BME280;65687;51.308;16.916;2023-06-05T17:05:13;99860.27;;;22.42;40.25
76753;BME280;65687;51.308;16.916;2023-06-05T17:10:15;99857.29;;;22.19;42.33
76753;BME280;65687;51.308;16.916;2023-06-05T17:15:17;99855.30;;;22.05;41.60
76753;BME280;65687;51.308;16.916;2023-06-05T17:20:19;99854.46;;;21.89;42.40
76753;BME280;65687;51.308;16.916;2023-06-05T17:25:21;99854.98;;;21.65;44.01
76753;BME280;65687;51.308;16.916;2023-06-05T17:30:23;99850.81;;;21.46;43.66
76753;BME280;65687;51.308;16.916;2023-06-05T17:35:24;99853.20;;;21.30;45.53
76753;BME280;65687;51.308;16.916;2023-06-05T17:40:26;99849.67;;;21.12;44.48
76753;BME280;65687;51.308;16.916;2023-06-05T17:45:28;99855.17;;;20.97;44.57
76753;BME280;65687;51.308;16.916;2023-06-05T17:50:32;99857.20;;;20.81;45.42
76753;BME280;65687;51.308;16.916;2023-06-05T17:55:33;99853.82;;;20.63;45.99
76753;BME280;65687;51.308;16.916;2023-06-05T18:00:36;99851.23;;;20.49;46.02
76753;BME280;65687;51.308;16.916;2023-06-05T18:05:39;99851.20;;;20.41;46.54
76753;BME280;65687;51.308;16.916;2023-06-05T18:10:41;99859.32;;;20.36;45.90
76753;BME280;65687;51.308;16.916;2023-06-05T18:15:42;99858.79;;;20.30;44.38
76753;BME280;65687;51.308;16.916;2023-06-05T18:20:44;99861.52;;;20.23;44.14
76753;BME280;65687;51.308;16.916;2023-06-05T18:25:46;99860.23;;;20.14;43.17
76753;BME280;65687;51.308;16.916;2023-06-05T18:30:48;99856.60;;;20.06;44.85
76753;BME280;65687;51.308;16.916;2023-06-05T18:35:49;99859.11;;;19.98;45.59
76753;BME280;65687;51.308;16.916;2023-06-05T18:40:52;99856.63;;;19.89;45.26
76753;BME280;65687;51.308;16.916;2023-06-05T18:45:55;99857.95;;;19.81;44.97
76753;BME280;65687;51.308;16.916;2023-06-05T18:50:57;99860.93;;;19.71;45.27
76753;BME280;65687;51.308;16.916;2023-06-05T18:56:05;99865.11;;;19.62;45.35
76753;BME280;65687;51.308;16.916;2023-06-05T19:01:08;99867.60;;;19.53;45.74
76753;BME280;65687;51.308;16.916;2023-06-05T19:06:10;99867.41;;;19.47;46.25
76753;BME280;65687;51.308;16.916;2023-06-05T19:11:14;99871.14;;;19.40;46.89
76753;BME280;65687;51.308;16.916;2023-06-05T19:16:16;99872.08;;;19.32;47.53
76753;BME280;65687;51.308;16.916;2023-06-05T19:21:19;99873.68;;;19.23;47.70
76753;BME280;65687;51.308;16.916;2023-06-05T19:26:22;99877.91;;;19.15;48.43
76753;BME280;65687;51.308;16.916;2023-06-05T19:31:23;99880.27;;;19.09;48.19
76753;BME280;65687;51.308;16.916;2023-06-05T19:36:25;99880.88;;;19.02;48.92
76753;BME280;65687;51.308;16.916;2023-06-05T19:41:27;99879.27;;;18.94;48.40
76753;BME280;65687;51.308;16.916;2023-06-05T19:46:35;99879.69;;;18.86;48.45
76753;BME280;65687;51.308;16.916;2023-06-05T19:51:37;99875.87;;;18.79;48.08
76753;BME280;65687;51.308;16.916;2023-06-05T19:56:44;99873.16;;;18.74;47.52
76753;BME280;65687;51.308;16.916;2023-06-05T20:01:46;99871.95;;;18.69;47.83
76753;BME280;65687;51.308;16.916;2023-06-05T20:06:49;99874.27;;;18.62;48.25
76753;BME280;65687;51.308;16.916;2023-06-05T20:11:51;99874.13;;;18.53;48.80
76753;BME280;65687;51.308;16.916;2023-06-05T20:16:53;99879.73;;;18.47;49.30
76753;BME280;65687;51.308;16.916;2023-06-05T20:21:54;99896.11;;;18.36;49.28
76753;BME280;65687;51.308;16.916;2023-06-05T20:26:56;99887.52;;;18.39;47.33
76753;BME280;65687;51.308;16.916;2023-06-05T20:31:58;99887.08;;;18.41;47.25
76753;BME280;65687;51.308;16.916;2023-06-05T20:37:00;99892.98;;;18.39;48.85
76753;BME280;65687;51.308;16.916;2023-06-05T20:42:02;99893.81;;;18.39;48.58
76753;BME280;65687;51.308;16.916;2023-06-05T20:47:07;99895.43;;;18.31;49.85
76753;BME280;65687;51.308;16.916;2023-06-05T20:52:09;99897.56;;;18.33;47.56
76753;BME280;65687;51.308;16.916;2023-06-05T20:57:13;99898.96;;;18.49;45.95
76753;BME280;65687;51.308;16.916;2023-06-05T21:02:16;99902.85;;;18.62;46.84
76753;BME280;65687;51.308;16.916;2023-06-05T21:07:19;99904.42;;;18.68;47.57
76753;BME280;65687;51.308;16.916;2023-06-05T21:12:20;99901.02;;;18.73;48.14
76753;BME280;65687;51.308;16.916;2023-06-05T21:17:22;99904.31;;;18.75;48.67
76753;BME280;65687;51.308;16.916;2023-06-05T21:22:23;99903.71;;;18.67;49.06
76753;BME280;65687;51.308;16.916;2023-06-05T21:27:25;99904.67;;;18.60;49.24
76753;BME280;65687;51.308;16.916;2023-06-05T21:32:27;99898.61;;;18.63;49.61
76753;BME280;65687;51.308;16.916;2023-06-05T21:37:29;99906.89;;;18.55;51.64
76753;BME280;65687;51.308;16.916;2023-06-05T21:42:30;99910.26;;;18.34;51.61
76753;BME280;65687;51.308;16.916;2023-06-05T21:47:32;99911.14;;;18.36;50.90
76753;BME280;65687;51.308;16.916;2023-06-05T21:52:34;99913.70;;;18.35;51.68
76753;BME280;65687;51.308;16.916;2023-06-05T21:57:35;99910.14;;;18.31;52.92
76753;BME280;65687;51.308;16.916;2023-06-05T22:02:37;99904.35;;;18.27;54.26
76753;BME280;65687;51.308;16.916;2023-06-05T22:07:38;99903.98;;;18.17;55.18
76753;BME280;65687;51.308;16.916;2023-06-05T22:12:42;99898.04;;;17.99;56.65
76753;BME280;65687;51.308;16.916;2023-06-05T22:17:45;99898.17;;;17.75;58.26
76753;BME280;65687;51.308;16.916;2023-06-05T22:22:52;99896.86;;;17.54;59.02
76753;BME280;65687;51.308;16.916;2023-06-05T22:27:54;99912.55;;;17.36;60.26
76753;BME280;65687;51.308;16.916;2023-06-05T22:32:56;99916.73;;;17.25;60.74
76753;BME280;65687;51.308;16.916;2023-06-05T22:37:58;99920.10;;;17.15;61.57
76753;BME280;65687;51.308;16.916;2023-06-05T22:42:59;99919.30;;;17.04;62.64
76753;BME280;65687;51.308;16.916;2023-06-05T22:48:01;99918.79;;;16.96;63.84
76753;BME280;65687;51.308;16.916;2023-06-05T22:53:02;99914.98;;;16.82;64.65
76753;BME280;65687;51.308;16.916;2023-06-05T22:58:04;99913.50;;;16.67;65.28
76753;BME280;65687;51.308;16.916;2023-06-05T23:03:06;99911.64;;;16.56;65.13
76753;BME280;65687;51.308;16.916;2023-06-05T23:08:08;99919.31;;;16.48;66.12
76753;BME280;65687;51.308;16.916;2023-06-05T23:13:11;99922.09;;;16.45;65.96
76753;BME280;65687;51.308;16.916;2023-06-05T23:18:13;99921.23;;;16.41;65.75
76753;BME280;65687;51.308;16.916;2023-06-05T23:23:16;99917.51;;;16.38;66.20
76753;BME280;65687;51.308;16.916;2023-06-05T23:28:17;99915.63;;;16.37;66.06
76753;BME280;65687;51.308;16.916;2023-06-05T23:33:19;99922.86;;;16.43;66.03
76753;BME280;65687;51.308;16.916;2023-06-05T23:38:21;99918.77;;;16.47;65.92
76753;BME280;65687;51.308;16.916;2023-06-05T23:43:23;99920.38;;;16.48;65.89
76753;BME280;65687;51.308;16.916;2023-06-05T23:48:25;99920.30;;;16.51;66.32
76753;BME280;65687;51.308;16.916;2023-06-05T23:53:26;99923.05;;;16.51;66.45
76753;BME280;65687;51.308;16.916;2023-06-05T23:58:28;99916.73;;;16.52;67.01
